Time;durP1;ratioP1;P1;durP2;ratioP2;P2;SDS_P1;SDS_P2;PMS_P1;PMS_P2;Temp;Humidity;BMP_temperature;BMP_pressure;BME280_temperature;BME280_humidity;BME280_pressure;Samples;Min_cycle;Max_cycle;Signal;HPM_P1;HPM_P2
2021/10/04 00:01:04;;;;;;;18.70;16.80;;;17.70;1.00;;;;;;5108246;28;20747;-56
2021/10/04 00:03:30;;;;;;;18.03;16.13;;;17.60;1.00;;;;;;5112664;28;20492;-57
2021/10/04 00:05:55;;;;;;;19.63;17.30;;;17.70;1.00;;;;;;5111999;28;20513;-57
2021/10/04 00:08:21;;;;;;;19.20;15.70;;;17.50;1.00;;;;;;5092726;28;20583;-57
2021/10/04 00:10:47;;;;;;;19.00;16.20;;;17.50;1.00;;;;;;5096673;28;20183;-57
2021/10/04 00:13:12;;;;;;;21.07;16.10;;;17.50;1.00;;;;;;5100152;28;20216;-57
2021/10/04 00:15:38;;;;;;;18.67;16.20;;;17.40;1.00;;;;;;5103832;28;20273;-57
2021/10/04 00:18:03;;;;;;;17.37;15.57;;;17.40;1.00;;;;;;5106093;28;20177;-57
2021/10/04 00:20:29;;;;;;;17.50;15.70;;;17.40;1.00;;;;;;5102042;28;20189;-56
2021/10/04 00:22:57;;;;;;;18.23;16.13;;;17.40;1.00;;;;;;5112463;28;20220;-56
2021/10/04 00:25:23;;;;;;;18.47;15.50;;;17.40;1.00;;;;;;5104907;28;20452;-58
2021/10/04 00:27:48;;;;;;;20.90;17.43;;;17.30;1.00;;;;;;5112822;28;20446;-56
2021/10/04 00:30:16;;;;;;;18.77;16.77;;;17.30;1.00;;;;;;5112813;28;20391;-57
2021/10/04 00:32:45;;;;;;;18.83;16.80;;;17.20;1.00;;;;;;5108348;28;20285;-56
2021/10/04 00:35:12;;;;;;;19.70;16.93;;;17.40;1.00;;;;;;5092362;28;20817;-56
2021/10/04 00:37:38;;;;;;;18.37;15.70;;;17.40;1.00;;;;;;5092265;28;20893;-55
2021/10/04 00:40:06;;;;;;;19.63;16.27;;;17.30;1.00;;;;;;5092321;28;20431;-56
2021/10/04 00:42:32;;;;;;;19.57;17.00;;;17.20;1.00;;;;;;5112387;28;20227;-56
2021/10/04 00:44:58;;;;;;;19.30;15.80;;;17.20;1.00;;;;;;5112553;28;20470;-57
2021/10/04 00:47:23;;;;;;;19.20;17.20;;;17.30;1.00;;;;;;5112594;28;20186;-57
2021/10/04 00:49:49;;;;;;;19.93;17.10;;;17.30;1.00;;;;;;5112299;28;20727;-57
2021/10/04 00:52:14;;;;;;;18.43;16.20;;;17.20;1.00;;;;;;5109000;28;20733;-56
2021/10/04 00:54:40;;;;;;;18.20;16.30;;;17.20;1.00;;;;;;5077673;28;20232;-56
2021/10/04 00:57:06;;;;;;;20.00;16.97;;;17.20;1.00;;;;;;5106521;28;20531;-56
2021/10/04 00:59:33;;;;;;;20.80;17.70;;;17.20;1.00;;;;;;5108435;28;20192;-56
2021/10/04 01:01:59;;;;;;;18.83;16.57;;;17.20;1.00;;;;;;5112033;28;20443;-56
2021/10/04 01:04:27;;;;;;;19.73;17.00;;;17.20;1.00;;;;;;5104112;28;20440;-56
2021/10/04 01:06:57;;;;;;;18.87;16.83;;;17.20;1.00;;;;;;5112002;28;20273;-57
2021/10/04 01:09:24;;;;;;;18.83;16.77;;;17.10;1.00;;;;;;5111321;28;20442;-57
2021/10/04 01:11:50;;;;;;;19.87;17.43;;;17.10;1.00;;;;;;5111614;28;20452;-57
2021/10/04 01:14:16;;;;;;;18.73;16.27;;;17.00;1.00;;;;;;5110617;28;20428;-56
2021/10/04 01:16:41;;;;;;;19.40;17.40;;;17.10;1.00;;;;;;5112231;28;21001;-56
2021/10/04 01:19:07;;;;;;;20.77;18.37;;;17.00;1.00;;;;;;5098116;28;20182;-56
2021/10/04 01:21:33;;;;;;;18.60;16.40;;;17.10;1.00;;;;;;5099159;28;20184;-58
2021/10/04 01:23:58;;;;;;;18.30;16.37;;;17.10;1.00;;;;;;5115917;28;20189;-56
2021/10/04 01:26:24;;;;;;;18.83;16.80;;;17.40;1.00;;;;;;5115930;28;20647;-57
2021/10/04 01:28:50;;;;;;;19.37;16.73;;;17.30;1.00;;;;;;5116056;28;20553;-57
2021/10/04 01:31:21;;;;;;;22.87;18.03;;;17.20;1.00;;;;;;5115667;28;20181;-57
2021/10/04 01:33:47;;;;;;;19.90;17.60;;;17.20;1.00;;;;;;5111643;28;20434;-57
2021/10/04 01:36:12;;;;;;;18.80;16.90;;;17.20;1.00;;;;;;5115250;28;20428;-57
2021/10/04 01:38:38;;;;;;;18.93;17.03;;;17.10;1.00;;;;;;5115383;28;20194;-57
2021/10/04 01:41:04;;;;;;;22.03;17.43;;;17.20;1.00;;;;;;5105660;28;20178;-57
2021/10/04 01:43:29;;;;;;;20.90;17.57;;;17.10;1.00;;;;;;5108452;28;20194;-57
2021/10/04 01:45:55;;;;;;;18.67;16.73;;;17.00;1.00;;;;;;5115184;28;20187;-57
2021/10/04 01:48:20;;;;;;;18.87;16.10;;;17.00;1.00;;;;;;5112931;28;20184;-57
2021/10/04 01:50:46;;;;;;;16.87;15.07;;;17.00;1.00;;;;;;5113644;28;20227;-56
2021/10/04 01:53:12;;;;;;;18.90;17.00;;;16.90;1.00;;;;;;5114456;28;20253;-57
2021/10/04 01:55:37;;;;;;;20.87;16.60;;;16.90;1.00;;;;;;5115008;28;20206;-57
2021/10/04 01:58:03;;;;;;;17.77;15.50;;;16.90;1.00;;;;;;5115065;28;20206;-57
2021/10/04 02:00:29;;;;;;;19.50;17.30;;;16.90;1.00;;;;;;5114790;28;20186;-56
2021/10/04 02:02:56;;;;;;;20.60;17.07;;;16.80;1.00;;;;;;5104869;28;20189;-57
2021/10/04 02:05:23;;;;;;;19.57;17.43;;;16.80;1.00;;;;;;5114750;28;20646;-57
2021/10/04 02:07:50;;;;;;;18.90;17.00;;;16.80;1.00;;;;;;5110080;27;20457;-57
2021/10/04 02:10:18;;;;;;;19.60;17.47;;;16.80;1.00;;;;;;5114630;28;20410;-56
2021/10/04 02:12:45;;;;;;;20.57;17.10;;;16.80;1.00;;;;;;5114629;28;20832;-57
2021/10/04 02:15:11;;;;;;;18.37;16.33;;;16.80;1.00;;;;;;5114796;27;20450;-56
2021/10/04 02:17:38;;;;;;;18.30;16.37;;;16.80;1.00;;;;;;5114481;28;20428;-57
2021/10/04 02:20:06;;;;;;;18.70;16.70;;;16.70;1.00;;;;;;5114150;28;20839;-58
2021/10/04 02:22:32;;;;;;;17.80;15.90;;;16.70;1.00;;;;;;5112662;27;20448;-56
2021/10/04 02:24:57;;;;;;;18.07;16.17;;;16.70;1.00;;;;;;5111058;28;20898;-57
2021/10/04 02:27:23;;;;;;;18.60;15.17;;;16.70;1.00;;;;;;5112962;28;20463;-56
2021/10/04 02:29:48;;;;;;;19.03;17.03;;;16.70;1.00;;;;;;5112204;28;20189;-56
2021/10/04 02:32:14;;;;;;;19.70;17.23;;;16.60;1.00;;;;;;5111730;28;20262;-56
2021/10/04 02:34:40;;;;;;;21.07;17.17;;;16.60;1.00;;;;;;5111557;28;20205;-57
2021/10/04 02:37:05;;;;;;;21.67;18.37;;;16.60;1.00;;;;;;5107171;28;20193;-57
2021/10/04 02:39:31;;;;;;;20.47;18.27;;;16.60;1.00;;;;;;5108018;28;20201;-55
2021/10/04 02:41:56;;;;;;;21.30;17.30;;;16.70;1.00;;;;;;5113257;28;20228;-57
2021/10/04 02:44:22;;;;;;;21.17;18.40;;;16.70;1.00;;;;;;5112383;28;20172;-56
2021/10/04 02:46:47;;;;;;;19.03;17.00;;;16.60;1.00;;;;;;5110737;28;20188;-56
2021/10/04 02:49:13;;;;;;;19.80;17.80;;;16.50;1.00;;;;;;5113158;28;20529;-56
2021/10/04 02:51:39;;;;;;;20.10;17.53;;;16.40;1.00;;;;;;5112423;28;20297;-57
2021/10/04 02:54:04;;;;;;;19.23;17.27;;;16.40;1.00;;;;;;5112763;28;20228;-56
2021/10/04 02:56:30;;;;;;;19.47;17.40;;;16.30;1.00;;;;;;5112952;28;20181;-57
2021/10/04 02:58:56;;;;;;;20.10;17.77;;;16.40;1.00;;;;;;5100100;28;20172;-57
2021/10/04 03:01:22;;;;;;;20.73;18.53;;;16.30;1.00;;;;;;5113957;28;20216;-57
2021/10/04 03:03:47;;;;;;;18.90;16.90;;;16.30;1.00;;;;;;5113403;28;20176;-57
2021/10/04 03:06:13;;;;;;;20.20;16.57;;;16.30;1.00;;;;;;5112784;28;20458;-57
2021/10/04 03:08:39;;;;;;;21.77;19.47;;;16.30;1.00;;;;;;5107848;28;20189;-57
2021/10/04 03:11:05;;;;;;;21.20;18.50;;;16.30;1.00;;;;;;5113384;28;20533;-57
2021/10/04 03:13:30;;;;;;;21.00;18.73;;;16.20;1.00;;;;;;5113286;28;20216;-57
2021/10/04 03:15:56;;;;;;;20.87;17.40;;;16.20;1.00;;;;;;5111011;28;20918;-57
2021/10/04 03:18:21;;;;;;;21.43;17.73;;;16.20;1.00;;;;;;5109715;28;20181;-57
2021/10/04 03:20:47;;;;;;;21.00;16.83;;;16.20;1.00;;;;;;5110400;28;20193;-56
2021/10/04 03:23:13;;;;;;;21.57;18.53;;;16.30;1.00;;;;;;5113148;28;20649;-57
2021/10/04 03:25:38;;;;;;;21.03;18.83;;;16.30;1.00;;;;;;5113007;28;20699;-56
2021/10/04 03:28:05;;;;;;;23.30;17.30;;;16.20;1.00;;;;;;5113236;28;20959;-57
2021/10/04 03:30:31;;;;;;;22.13;19.60;;;16.30;1.00;;;;;;5113483;28;20521;-57
2021/10/04 03:32:56;;;;;;;19.97;17.97;;;16.30;1.00;;;;;;5113277;28;20427;-56
2021/10/04 03:35:23;;;;;;;19.57;17.40;;;16.30;1.00;;;;;;5113404;28;20181;-56
2021/10/04 03:37:49;;;;;;;19.80;17.70;;;16.30;1.00;;;;;;5113479;28;20187;-56
2021/10/04 03:40:14;;;;;;;19.40;17.30;;;16.30;1.00;;;;;;5094804;28;20436;-56
2021/10/04 03:42:40;;;;;;;21.60;17.97;;;16.30;1.00;;;;;;5113269;28;20816;-57
2021/10/04 03:45:07;;;;;;;21.90;18.20;;;16.30;1.00;;;;;;5113388;28;20238;-56
2021/10/04 03:47:32;;;;;;;21.40;18.37;;;16.20;1.00;;;;;;5113190;28;20208;-57
2021/10/04 03:49:58;;;;;;;23.20;19.37;;;16.20;1.00;;;;;;5112914;28;20434;-55
2021/10/04 03:52:23;;;;;;;20.77;18.40;;;16.30;1.00;;;;;;5112931;28;20578;-57
2021/10/04 03:54:49;;;;;;;21.53;19.27;;;16.30;1.00;;;;;;5113126;28;20534;-56
2021/10/04 03:57:15;;;;;;;21.67;18.30;;;16.30;1.00;;;;;;5112879;28;20178;-56
2021/10/04 03:59:41;;;;;;;21.00;18.70;;;16.30;1.00;;;;;;5112758;28;20272;-57
2021/10/04 04:02:07;;;;;;;22.53;18.53;;;16.40;1.00;;;;;;5102749;28;20499;-56
2021/10/04 04:04:32;;;;;;;23.27;18.20;;;16.30;1.00;;;;;;5102489;28;20190;-56
2021/10/04 04:06:58;;;;;;;19.20;17.20;;;16.20;1.00;;;;;;5112829;28;20533;-56
2021/10/04 04:09:23;;;;;;;21.80;19.50;;;16.20;1.00;;;;;;5112662;28;20649;-57
2021/10/04 04:11:49;;;;;;;21.60;18.30;;;16.30;1.00;;;;;;5112838;28;20631;-58
2021/10/04 04:14:14;;;;;;;22.80;19.97;;;16.30;1.00;;;;;;5113069;28;20588;-62
2021/10/04 04:16:40;;;;;;;21.70;19.40;;;16.40;1.00;;;;;;5113674;28;20649;-57
2021/10/04 04:19:05;;;;;;;21.03;18.70;;;16.30;1.00;;;;;;5106899;28;20529;-57
2021/10/04 04:21:31;;;;;;;19.50;17.47;;;16.30;1.00;;;;;;5108078;28;20704;-57
2021/10/04 04:23:57;;;;;;;23.27;19.70;;;16.30;1.00;;;;;;5108904;28;20267;-56
2021/10/04 04:26:22;;;;;;;19.33;16.90;;;16.30;1.00;;;;;;5110610;28;20185;-56
2021/10/04 04:28:48;;;;;;;20.47;17.83;;;16.30;1.00;;;;;;5109706;28;20201;-56
2021/10/04 04:31:13;;;;;;;22.33;17.70;;;16.90;1.00;;;;;;5109802;28;20315;-56
2021/10/04 04:33:39;;;;;;;21.83;17.53;;;16.30;1.00;;;;;;5107911;28;20205;-56
2021/10/04 04:36:05;;;;;;;21.70;19.00;;;16.30;1.00;;;;;;5110198;28;20271;-56
2021/10/04 04:38:31;;;;;;;21.23;19.00;;;16.30;1.00;;;;;;5105093;28;20229;-57
2021/10/04 04:40:57;;;;;;;22.47;19.57;;;16.30;1.00;;;;;;5109635;28;20461;-56
2021/10/04 04:43:22;;;;;;;21.83;18.67;;;16.30;1.00;;;;;;5107931;28;20197;-57
2021/10/04 04:45:48;;;;;;;21.23;19.03;;;16.20;1.00;;;;;;5106709;28;20183;-57
2021/10/04 04:48:13;;;;;;;22.60;19.83;;;16.20;1.00;;;;;;5109232;28;20641;-56
2021/10/04 04:50:39;;;;;;;25.00;19.13;;;16.10;1.00;;;;;;5112393;28;20303;-57
2021/10/04 04:53:04;;;;;;;21.43;18.03;;;16.10;1.00;;;;;;5115754;28;20665;-56
2021/10/04 04:55:30;;;;;;;22.23;18.67;;;16.20;1.00;;;;;;5116472;28;20179;-56
2021/10/04 04:57:56;;;;;;;22.83;19.00;;;16.20;1.00;;;;;;5116807;28;20226;-56
2021/10/04 05:00:21;;;;;;;23.37;18.33;;;16.20;1.00;;;;;;5116503;28;20437;-56
2021/10/04 05:02:47;;;;;;;22.00;19.30;;;16.10;1.00;;;;;;5116415;28;20184;-55
2021/10/04 05:05:15;;;;;;;21.70;18.97;;;16.10;1.00;;;;;;5116412;28;20179;-55
2021/10/04 05:07:41;;;;;;;23.30;20.80;;;16.20;1.00;;;;;;5116043;28;20417;-55
2021/10/04 05:10:08;;;;;;;21.53;19.17;;;16.20;1.00;;;;;;5116314;28;20425;-55
2021/10/04 05:12:34;;;;;;;23.00;18.87;;;16.20;1.00;;;;;;5116111;28;20745;-55
2021/10/04 05:15:00;;;;;;;21.67;18.77;;;16.20;1.00;;;;;;5116242;28;20499;-54
2021/10/04 05:17:26;;;;;;;20.03;17.83;;;16.20;1.00;;;;;;5115833;28;20403;-55
2021/10/04 05:19:51;;;;;;;23.83;19.17;;;16.30;1.00;;;;;;5115977;28;20479;-55
2021/10/04 05:22:17;;;;;;;21.83;18.40;;;16.30;1.00;;;;;;5116174;28;20226;-55
2021/10/04 05:24:43;;;;;;;20.93;18.70;;;16.30;1.00;;;;;;5115757;28;20664;-55
2021/10/04 05:27:08;;;;;;;22.03;19.73;;;16.20;1.00;;;;;;5115858;28;20802;-55
2021/10/04 05:29:34;;;;;;;21.87;18.63;;;16.30;1.00;;;;;;5115850;28;20221;-56
2021/10/04 05:32:00;;;;;;;24.50;20.20;;;16.30;1.00;;;;;;5115477;28;20187;-55
2021/10/04 05:34:25;;;;;;;22.67;20.37;;;16.30;1.00;;;;;;5115660;28;20185;-55
2021/10/04 05:36:51;;;;;;;24.10;20.40;;;16.30;1.00;;;;;;5115361;28;20252;-55
2021/10/04 05:39:16;;;;;;;26.30;20.77;;;16.30;1.00;;;;;;5115534;28;20172;-56
2021/10/04 05:41:42;;;;;;;22.90;19.37;;;16.40;1.00;;;;;;5115178;28;20667;-55
2021/10/04 05:44:08;;;;;;;21.43;18.33;;;16.50;1.00;;;;;;5115525;28;20192;-56
2021/10/04 05:46:34;;;;;;;22.53;18.80;;;16.50;1.00;;;;;;5115333;28;20532;-56
2021/10/04 05:49:00;;;;;;;21.40;18.87;;;16.20;1.00;;;;;;5115402;28;20236;-56
2021/10/04 05:51:26;;;;;;;22.70;19.67;;;16.40;1.00;;;;;;5114892;28;20807;-55
2021/10/04 05:53:51;;;;;;;23.73;20.03;;;16.40;1.00;;;;;;5114878;28;20253;-55
2021/10/04 05:56:17;;;;;;;22.80;20.33;;;16.40;1.00;;;;;;5115193;28;20270;-56
2021/10/04 05:58:42;;;;;;;25.17;20.40;;;16.50;1.00;;;;;;5115218;28;20603;-57
2021/10/04 06:01:08;;;;;;;20.57;18.33;;;16.40;1.00;;;;;;5114944;28;20217;-55
2021/10/04 06:03:33;;;;;;;21.77;18.83;;;16.50;1.00;;;;;;5112420;28;20279;-56
2021/10/04 06:05:59;;;;;;;26.43;19.17;;;16.50;1.00;;;;;;5115431;28;20217;-55
2021/10/04 06:08:24;;;;;;;23.27;21.00;;;16.60;1.00;;;;;;5115028;28;20606;-57
2021/10/04 06:10:50;;;;;;;24.47;19.53;;;16.60;1.00;;;;;;5114962;28;20184;-55
2021/10/04 06:13:15;;;;;;;22.53;18.87;;;16.70;1.00;;;;;;5114675;28;20231;-56
2021/10/04 06:15:42;;;;;;;22.33;19.70;;;16.80;1.00;;;;;;5096899;28;20193;-56
2021/10/04 06:18:11;;;;;;;21.70;19.00;;;16.70;1.00;;;;;;5114667;28;20184;-56
2021/10/04 06:20:37;;;;;;;21.63;19.23;;;16.70;1.00;;;;;;5097424;28;20402;-55
2021/10/04 06:23:03;;;;;;;21.40;19.10;;;16.70;1.00;;;;;;5114588;28;20795;-55
2021/10/04 06:25:29;;;;;;;21.60;19.17;;;16.80;1.00;;;;;;5114692;28;20431;-57
2021/10/04 06:27:55;;;;;;;23.73;19.67;;;16.80;1.00;;;;;;5114558;28;20193;-55
2021/10/04 06:30:21;;;;;;;24.17;20.13;;;16.90;1.00;;;;;;5114553;28;20674;-57
2021/10/04 06:32:47;;;;;;;24.87;19.97;;;16.90;1.00;;;;;;5114592;28;20988;-56
2021/10/04 06:35:13;;;;;;;23.37;19.13;;;16.90;1.00;;;;;;5114352;28;20431;-56
2021/10/04 06:37:39;;;;;;;26.40;19.77;;;16.90;1.00;;;;;;5114900;28;20225;-56
2021/10/04 06:40:06;;;;;;;22.40;18.50;;;16.90;1.00;;;;;;5114461;28;20924;-56
2021/10/04 06:42:32;;;;;;;24.37;19.07;;;16.90;1.00;;;;;;5114417;28;20471;-56
2021/10/04 06:44:58;;;;;;;24.83;20.90;;;17.00;1.00;;;;;;5114448;28;20495;-55
2021/10/04 06:47:24;;;;;;;22.20;18.27;;;17.30;1.00;;;;;;5114220;28;20185;-55
2021/10/04 06:49:49;;;;;;;27.63;20.50;;;17.40;1.00;;;;;;5114420;28;20187;-55
2021/10/04 06:52:15;;;;;;;22.83;18.77;;;17.50;1.00;;;;;;5113815;28;20478;-56
2021/10/04 06:54:41;;;;;;;24.90;19.13;;;17.60;1.00;;;;;;5114343;28;20245;-56
2021/10/04 06:57:06;;;;;;;25.93;20.30;;;17.60;1.00;;;;;;5114236;28;20426;-55
2021/10/04 06:59:34;;;;;;;19.87;17.83;;;17.60;1.00;;;;;;5114172;28;20253;-56
2021/10/04 07:02:00;;;;;;;23.50;18.13;;;17.60;1.00;;;;;;5114302;28;20231;-55
2021/10/04 07:04:26;;;;;;;22.70;18.80;;;17.60;1.00;;;;;;5114005;28;20425;-56
2021/10/04 07:06:51;;;;;;;25.10;19.97;;;17.70;1.00;;;;;;5114002;28;20455;-56
2021/10/04 07:09:17;;;;;;;21.33;18.50;;;17.70;1.00;;;;;;5114016;28;20186;-56
2021/10/04 07:11:42;;;;;;;23.63;18.90;;;17.80;1.00;;;;;;5113604;28;20185;-56
2021/10/04 07:14:08;;;;;;;22.23;18.60;;;17.90;1.00;;;;;;5113216;28;20213;-56
2021/10/04 07:16:34;;;;;;;27.50;19.40;;;18.00;1.00;;;;;;5113808;28;20265;-56
2021/10/04 07:19:00;;;;;;;18.40;16.47;;;18.00;1.00;;;;;;5113903;28;20528;-56
2021/10/04 07:21:26;;;;;;;22.80;19.50;;;18.00;1.00;;;;;;5113723;28;20491;-54
2021/10/04 07:23:51;;;;;;;23.50;19.00;;;18.20;1.00;;;;;;5113953;28;20394;-55
2021/10/04 07:26:18;;;;;;;19.80;17.00;;;18.20;1.00;;;;;;5113661;28;20189;-56
2021/10/04 07:28:43;;;;;;;20.50;17.20;;;18.50;1.00;;;;;;5113786;28;20188;-56
2021/10/04 07:31:09;;;;;;;18.70;16.73;;;18.70;1.00;;;;;;5113821;28;20406;-56
2021/10/04 07:33:35;;;;;;;20.00;17.13;;;18.90;1.00;;;;;;5113249;28;20204;-55
2021/10/04 07:36:02;;;;;;;20.57;18.03;;;19.00;1.00;;;;;;5112109;28;20903;-55
2021/10/04 07:38:27;;;;;;;18.27;16.47;;;19.10;1.00;;;;;;5113288;28;20224;-57
2021/10/04 07:40:53;;;;;;;20.00;17.90;;;19.20;1.00;;;;;;5113259;28;20420;-56
2021/10/04 07:43:19;;;;;;;19.43;16.80;;;19.30;1.00;;;;;;5113309;28;20219;-55
2021/10/04 07:45:44;;;;;;;19.07;16.10;;;19.30;1.00;;;;;;5113690;28;20272;-56
2021/10/04 07:48:10;;;;;;;17.93;16.10;;;19.30;1.00;;;;;;5094929;28;20186;-57
2021/10/04 07:50:36;;;;;;;18.80;16.90;;;19.50;1.00;;;;;;5113226;28;20679;-56
2021/10/04 07:53:01;;;;;;;17.50;15.17;;;19.50;1.00;;;;;;5113174;28;20254;-56
2021/10/04 07:55:27;;;;;;;18.60;16.10;;;19.50;1.00;;;;;;5113333;28;20193;-56
2021/10/04 07:57:52;;;;;;;17.63;15.67;;;19.50;1.00;;;;;;5111762;28;20670;-56
2021/10/04 08:00:19;;;;;;;19.87;15.87;;;19.80;1.00;;;;;;5111864;28;20201;-56
2021/10/04 08:02:45;;;;;;;19.23;14.80;;;19.80;1.00;;;;;;5113244;28;20183;-55
2021/10/04 08:05:11;;;;;;;17.20;15.00;;;19.90;1.00;;;;;;5113327;28;20403;-56
2021/10/04 08:07:37;;;;;;;18.30;16.37;;;20.10;1.00;;;;;;5113215;28;20884;-56
2021/10/04 08:10:05;;;;;;;18.70;16.80;;;20.40;1.00;;;;;;5113159;28;20431;-56
2021/10/04 08:12:30;;;;;;;18.40;15.20;;;20.80;1.00;;;;;;5113040;28;20587;-57
2021/10/04 08:14:56;;;;;;;17.10;15.30;;;21.10;1.00;;;;;;5113081;28;20499;-54
2021/10/04 08:17:23;;;;;;;17.00;14.33;;;21.10;1.00;;;;;;5112957;28;20175;-57
2021/10/04 08:19:49;;;;;;;14.57;12.97;;;21.30;1.00;;;;;;5113027;28;20420;-55
2021/10/04 08:22:15;;;;;;;16.83;13.40;;;21.50;1.00;;;;;;5112755;28;20462;-55
2021/10/04 08:24:41;;;;;;;19.67;15.20;;;21.50;1.00;;;;;;5113032;28;20483;-56
2021/10/04 08:27:06;;;;;;;20.47;14.10;;;21.40;1.00;;;;;;5114408;28;20178;-56
2021/10/04 08:29:32;;;;;;;19.00;14.20;;;21.60;1.00;;;;;;5116711;28;20694;-57
2021/10/04 08:31:58;;;;;;;15.77;13.93;;;21.70;1.00;;;;;;5116288;28;20446;-56
2021/10/04 08:34:23;;;;;;;13.67;12.27;;;21.80;1.00;;;;;;5116361;28;20237;-56
2021/10/04 08:36:49;;;;;;;16.50;12.90;;;21.90;1.00;;;;;;5116538;28;20214;-56
2021/10/04 08:39:14;;;;;;;14.70;13.20;;;21.80;1.00;;;;;;5116477;28;20215;-56
2021/10/04 08:41:40;;;;;;;14.87;12.90;;;21.50;1.00;;;;;;5116500;28;20179;-57
2021/10/04 08:44:12;;;;;;;14.17;12.70;;;21.50;1.00;;;;;;5116368;28;20194;-56
2021/10/04 08:46:41;;;;;;;19.40;14.90;;;21.40;1.00;;;;;;5116435;28;20243;-57
2021/10/04 08:49:07;;;;;;;17.20;15.23;;;21.10;1.00;;;;;;5116558;28;20415;-55
2021/10/04 08:51:33;;;;;;;20.63;14.97;;;20.70;1.00;;;;;;5116131;28;20535;-56
2021/10/04 08:54:00;;;;;;;19.10;14.97;;;20.40;1.00;;;;;;5115929;28;20542;-57
2021/10/04 08:56:26;;;;;;;15.90;14.30;;;20.20;1.00;;;;;;5114943;28;20893;-56
2021/10/04 08:58:51;;;;;;;15.47;13.93;;;20.00;1.00;;;;;;5116533;28;20544;-57
2021/10/04 09:01:24;;;;;;;15.63;13.87;;;19.90;1.00;;;;;;5098157;28;20279;-56
2021/10/04 09:04:01;;;;;;;16.23;13.20;;;19.80;1.00;;;;;;5116598;28;20722;-56
2021/10/04 09:06:39;;;;;;;16.20;14.50;;;19.80;1.00;;;;;;5098019;28;20452;-57
2021/10/04 09:09:12;;;;;;;15.80;14.03;;;19.70;1.00;;;;;;5116348;28;20434;-57
2021/10/04 09:11:47;;;;;;;17.47;13.73;;;19.70;1.00;;;;;;5116591;28;20937;-57
2021/10/04 09:14:19;;;;;;;12.53;10.30;;;19.70;1.00;;;;;;5116258;28;20799;-56
2021/10/04 09:17:01;;;;;;;13.13;9.67;;;19.60;1.00;;;;;;5116310;28;20527;-57
2021/10/04 09:19:39;;;;;;;14.40;12.50;;;19.70;1.00;;;;;;5116174;28;20434;-56
2021/10/04 09:22:15;;;;;;;10.93;9.67;;;19.60;1.00;;;;;;5097744;28;20426;-56
2021/10/04 09:25:01;;;;;;;9.97;8.90;;;19.50;1.00;;;;;;5115921;28;20808;-57
2021/10/04 09:27:32;;;;;;;7.30;6.60;;;19.50;1.00;;;;;;5115794;28;20480;-55
2021/10/04 09:30:04;;;;;;;6.70;5.53;;;19.60;1.00;;;;;;5115998;28;20510;-56
2021/10/04 09:32:35;;;;;;;5.07;4.43;;;19.70;1.00;;;;;;5115658;28;20911;-57
2021/10/04 09:35:27;;;;;;;3.90;3.50;;;19.70;1.00;;;;;;5115918;28;20470;-56
2021/10/04 09:37:59;;;;;;;4.10;3.60;;;19.80;1.00;;;;;;5116051;28;20510;-56
2021/10/04 09:40:35;;;;;;;2.90;2.40;;;19.80;1.00;;;;;;5115967;28;20507;-57
2021/10/04 09:43:03;;;;;;;3.50;2.10;;;19.80;1.00;;;;;;5116052;28;20416;-56
2021/10/04 09:45:30;;;;;;;4.40;2.87;;;19.80;1.00;;;;;;5115755;28;20434;-57
2021/10/04 09:47:56;;;;;;;2.57;2.37;;;19.80;1.00;;;;;;5115611;28;20510;-57
2021/10/04 09:50:30;;;;;;;3.63;2.60;;;19.80;1.00;;;;;;5115465;28;20409;-58
2021/10/04 09:53:01;;;;;;;4.30;2.70;;;20.00;1.00;;;;;;5115426;28;20432;-57
2021/10/04 09:55:48;;;;;;;2.00;1.80;;;20.20;1.00;;;;;;5115509;28;20757;-58
2021/10/04 09:58:18;;;;;;;2.60;1.87;;;20.40;1.00;;;;;;5115659;28;20436;-55
2021/10/04 10:00:56;;;;;;;1.93;1.80;;;20.60;1.00;;;;;;5115428;28;20405;-56
2021/10/04 10:03:28;;;;;;;1.87;1.53;;;20.90;1.00;;;;;;5115424;28;20550;-56
2021/10/04 10:05:56;;;;;;;2.10;1.80;;;20.90;1.00;;;;;;5115113;28;20430;-57
2021/10/04 10:08:24;;;;;;;2.57;1.43;;;20.60;1.00;;;;;;5115337;28;20397;-57
2021/10/04 10:10:52;;;;;;;1.63;1.40;;;20.70;1.00;;;;;;5115013;28;20436;-56
2021/10/04 10:13:21;;;;;;;1.60;1.50;;;20.60;1.00;;;;;;5115299;28;20569;-56
2021/10/04 10:16:13;;;;;;;2.87;1.80;;;20.70;1.00;;;;;;5115012;28;20432;-56
2021/10/04 10:18:49;;;;;;;6.53;1.73;;;20.80;1.00;;;;;;5114611;28;20457;-56
2021/10/04 10:21:23;;;;;;;1.80;1.50;;;20.90;1.00;;;;;;5114796;28;20434;-56
2021/10/04 10:23:52;;;;;;;2.50;1.60;;;20.80;1.00;;;;;;5114555;28;20431;-56
2021/10/04 10:26:40;;;;;;;1.43;1.33;;;20.80;1.00;;;;;;5114948;28;20433;-56
2021/10/04 10:29:08;;;;;;;2.93;1.40;;;20.80;1.00;;;;;;5114640;28;20908;-57
2021/10/04 10:32:08;;;;;;;1.90;1.43;;;20.60;1.00;;;;;;5114860;28;20476;-57
2021/10/04 10:34:33;;;;;;;1.40;1.30;;;20.40;1.00;;;;;;5081282;28;20436;-57
2021/10/04 10:37:36;;;;;;;1.53;1.07;;;20.30;1.00;;;;;;5114690;28;20445;-56
2021/10/04 10:40:19;;;;;;;3.40;0.97;;;20.30;1.00;;;;;;5103427;28;20190;-56
2021/10/04 10:43:01;;;;;;;0.90;0.80;;;20.40;1.00;;;;;;5095776;28;20430;-56
2021/10/04 10:45:47;;;;;;;2.80;1.20;;;20.60;1.00;;;;;;5114516;28;20419;-57
2021/10/04 10:48:14;;;;;;;5.53;1.40;;;20.70;1.00;;;;;;5114134;28;20427;-56
2021/10/04 10:50:42;;;;;;;1.10;1.00;;;20.90;1.00;;;;;;5095301;28;20462;-57
2021/10/04 10:53:17;;;;;;;1.93;1.50;;;20.90;1.00;;;;;;5114379;28;20463;-56
2021/10/04 10:56:01;;;;;;;2.20;1.60;;;21.10;1.00;;;;;;5114414;28;20519;-56
2021/10/04 10:58:29;;;;;;;2.50;2.30;;;21.30;1.00;;;;;;5114494;28;20487;-56
2021/10/04 11:01:13;;;;;;;5.57;2.27;;;21.50;1.00;;;;;;5114438;28;20395;-56
2021/10/04 11:03:49;;;;;;;3.20;2.47;;;21.60;1.00;;;;;;5114138;28;20456;-57
2021/10/04 11:06:15;;;;;;;3.83;2.50;;;21.70;1.00;;;;;;5114177;28;20406;-56
2021/10/04 11:08:43;;;;;;;1.90;1.80;;;21.60;1.00;;;;;;5114218;28;20399;-57
2021/10/04 11:11:17;;;;;;;2.53;1.80;;;21.30;1.00;;;;;;5114065;28;20439;-56
2021/10/04 11:13:56;;;;;;;2.70;2.40;;;21.10;1.00;;;;;;5113886;28;20426;-56
2021/10/04 11:16:24;;;;;;;2.17;1.70;;;20.90;1.00;;;;;;5113759;28;20431;-56
2021/10/04 11:18:52;;;;;;;3.43;1.30;;;20.80;1.00;;;;;;5113974;28;20410;-56
2021/10/04 11:21:21;;;;;;;1.60;1.50;;;20.80;1.00;;;;;;5113759;28;20480;-58
2021/10/04 11:23:49;;;;;;;2.20;1.70;;;20.70;1.00;;;;;;5113794;28;20413;-57
2021/10/04 11:26:20;;;;;;;1.70;1.37;;;20.70;1.00;;;;;;5113486;28;20517;-57
2021/10/04 11:28:55;;;;;;;4.10;1.80;;;20.50;1.00;;;;;;5113879;28;20444;-57
2021/10/04 11:31:22;;;;;;;3.00;1.90;;;20.50;1.00;;;;;;5113664;28;20400;-56
2021/10/04 11:33:53;;;;;;;7.53;2.10;;;20.50;1.00;;;;;;5114109;28;20475;-56
2021/10/04 11:36:22;;;;;;;2.57;2.07;;;20.60;1.00;;;;;;5095602;28;20443;-58
2021/10/04 11:38:52;;;;;;;2.10;1.90;;;20.60;1.00;;;;;;5113688;28;20434;-56
2021/10/04 11:41:30;;;;;;;1.97;1.60;;;20.40;1.00;;;;;;5113457;28;20439;-56
2021/10/04 11:43:59;;;;;;;2.70;1.73;;;20.20;1.00;;;;;;5113442;28;20421;-58
2021/10/04 11:46:28;;;;;;;2.20;1.73;;;20.10;1.00;;;;;;5113365;28;20562;-56
2021/10/04 11:49:07;;;;;;;3.10;1.50;;;20.00;1.00;;;;;;5113205;28;20452;-56
2021/10/04 11:51:37;;;;;;;2.30;1.40;;;19.90;1.00;;;;;;5113011;28;20444;-56
2021/10/04 11:54:03;;;;;;;1.73;1.20;;;19.80;1.00;;;;;;5112987;28;20460;-56
2021/10/04 11:56:29;;;;;;;1.30;1.20;;;19.80;1.00;;;;;;5113170;28;20401;-57
2021/10/04 11:58:59;;;;;;;2.37;1.63;;;19.90;1.00;;;;;;5113272;28;20407;-57
2021/10/04 12:01:38;;;;;;;2.37;1.70;;;19.80;1.00;;;;;;5112856;28;20399;-57
2021/10/04 12:04:12;;;;;;;2.63;1.70;;;19.70;1.00;;;;;;5113284;28;20443;-57
2021/10/04 12:06:42;;;;;;;2.30;1.70;;;19.70;1.00;;;;;;5112767;28;20406;-56
2021/10/04 12:09:13;;;;;;;6.93;1.77;;;19.80;1.00;;;;;;5112908;28;20460;-57
2021/10/04 12:11:49;;;;;;;4.30;1.50;;;19.80;1.00;;;;;;5113012;28;20406;-56
2021/10/04 12:14:16;;;;;;;2.17;1.43;;;19.70;1.00;;;;;;5112896;28;20821;-56
2021/10/04 12:16:42;;;;;;;2.37;1.60;;;19.50;1.00;;;;;;5112706;28;20884;-57
2021/10/04 12:19:08;;;;;;;1.40;1.20;;;19.30;1.00;;;;;;5112718;28;20478;-57
2021/10/04 12:21:37;;;;;;;1.63;1.10;;;19.30;1.00;;;;;;5112641;28;20234;-56
2021/10/04 12:24:08;;;;;;;2.80;1.87;;;19.00;1.00;;;;;;5113027;28;20182;-57
2021/10/04 12:26:59;;;;;;;4.07;2.40;;;18.90;1.00;;;;;;5112418;28;20903;-56
2021/10/04 12:29:46;;;;;;;3.50;2.27;;;18.80;1.00;;;;;;5112791;28;20936;-57
2021/10/04 12:32:19;;;;;;;6.03;3.40;;;18.60;1.00;;;;;;5112555;28;20451;-56
2021/10/04 12:35:06;;;;;;;4.17;2.03;;;18.50;1.00;;;;;;5112654;28;20422;-56
2021/10/04 12:37:37;;;;;;;4.60;2.10;;;18.50;1.00;;;;;;5112889;28;20996;-57
2021/10/04 12:40:22;;;;;;;2.03;1.43;;;18.40;1.00;;;;;;5112930;28;20451;-56
2021/10/04 12:42:48;;;;;;;2.83;1.67;;;18.30;1.00;;;;;;5112556;28;20438;-57
2021/10/04 12:45:14;;;;;;;5.33;1.20;;;18.20;1.00;;;;;;5112775;28;20402;-57
2021/10/04 12:48:00;;;;;;;2.13;1.37;;;18.10;1.00;;;;;;5112698;28;20611;-56